createdAt,value
2022-08-11T00:00:14.337Z,58.46
2022-08-11T00:05:50.776Z,58.87
2022-08-11T00:11:02.984Z,58.97
2022-08-11T00:16:30.321Z,59.16
2022-08-11T00:22:05.274Z,59.32
2022-08-11T00:27:36.587Z,59.37
2022-08-11T00:33:00.313Z,59.35
2022-08-11T00:38:33.537Z,59.67
2022-08-11T00:44:01.377Z,59.76
2022-08-11T00:49:40.193Z,59.84
2022-08-11T00:55:35.611Z,60.26
2022-08-11T01:01:27.916Z,60.22
2022-08-11T01:07:10.382Z,60.31
2022-08-11T01:12:46.709Z,60.65
2022-08-11T01:18:46.987Z,60.62
2022-08-11T01:24:34.171Z,60.91
2022-08-11T01:30:27.975Z,60.99
2022-08-11T01:36:05.768Z,61.54
2022-08-11T01:42:15.579Z,61.49
2022-08-11T01:48:01.411Z,61.61
2022-08-11T01:53:29.237Z,61.56
2022-08-11T01:58:52.390Z,61.81
2022-08-11T02:04:11.619Z,61.93
2022-08-11T02:09:55.624Z,62.72
2022-08-11T02:15:15.115Z,62.53
2022-08-11T02:20:54.020Z,62.42
2022-08-11T02:26:17.563Z,62.46
2022-08-11T02:32:24.508Z,62.65
2022-08-11T02:37:52.097Z,62.89
2022-08-11T02:43:13.576Z,63.45
2022-08-11T02:48:59.306Z,63.99
2022-08-11T02:54:20.670Z,64.22
2022-08-11T02:59:52.777Z,64.17
2022-08-11T03:05:35.334Z,64.25
2022-08-11T03:11:10.130Z,64.27
2022-08-11T03:16:49.207Z,64.75
2022-08-11T03:22:10.181Z,64.89
2022-08-11T03:27:41.487Z,64.95
2022-08-11T03:33:24.898Z,65.17
2022-08-11T03:39:00.193Z,65.43
2022-08-11T03:44:21.949Z,65.49
2022-08-11T03:49:45.891Z,65.56
2022-08-11T03:55:03.516Z,65.81
2022-08-11T04:00:49.845Z,65.83
2022-08-11T04:07:22.028Z,65.85
2022-08-11T04:13:11.549Z,66.13
2022-08-11T04:19:32.150Z,66.37
2022-08-11T04:25:17.843Z,66.33
2022-08-11T04:30:59.991Z,66.21
2022-08-11T04:37:03.512Z,66.11
2022-08-11T04:43:23.787Z,65.89
2022-08-11T04:49:39.045Z,65.51
2022-08-11T04:55:52.076Z,64.78
2022-08-11T05:01:43.429Z,64.27
2022-08-11T05:07:34.885Z,64.11
2022-08-11T05:13:22.400Z,63.55
2022-08-11T05:19:15.969Z,62.94
2022-08-11T05:25:00.151Z,62.38
2022-08-11T05:30:51.306Z,62.71
2022-08-11T05:36:51.331Z,62.44
2022-08-11T05:42:30.221Z,62.11
2022-08-11T05:48:24.606Z,61.54
2022-08-11T05:54:27.889Z,61.29
2022-08-11T05:59:54.437Z,60.93
2022-08-11T06:05:25.207Z,60.57
2022-08-11T06:10:38.850Z,59.97
2022-08-11T06:16:07.207Z,59.52
2022-08-11T06:21:37.799Z,59.67
2022-08-11T06:27:12.871Z,59.09
2022-08-11T06:33:02.767Z,58.61
2022-08-11T06:38:28.697Z,58.12
2022-08-11T06:43:55.581Z,57.25
2022-08-11T06:49:28.374Z,56.76
2022-08-11T06:55:05.803Z,55.84
2022-08-11T07:00:29.347Z,55.27
2022-08-11T07:05:46.880Z,54.72
2022-08-11T07:11:32.429Z,53.62
2022-08-11T07:16:45.765Z,53.02
2022-08-11T07:22:12.954Z,53.12
2022-08-11T07:27:44.775Z,52.51
2022-08-11T07:32:54.829Z,51.65
2022-08-11T07:38:09.505Z,50.68
2022-08-11T07:43:24.640Z,49.96
2022-08-11T07:48:52.537Z,49.47
2022-08-11T07:54:07.759Z,48.84
2022-08-11T08:00:00.063Z,48.44
2022-08-11T08:05:51.127Z,48.01
2022-08-11T08:11:27.404Z,47.91
2022-08-11T08:16:53.915Z,46.54
2022-08-11T08:22:38.217Z,45.46
2022-08-11T08:27:49.904Z,44.91
2022-08-11T08:33:01.860Z,44.86
2022-08-11T08:38:21.227Z,44.86
2022-08-11T08:43:49.228Z,44.04
2022-08-11T08:49:03.776Z,44.19
2022-08-11T08:54:19.332Z,43.87
2022-08-11T08:59:47.513Z,43.61
2022-08-11T09:05:23.732Z,43.38
2022-08-11T09:10:35.377Z,43.04
2022-08-11T09:15:56.311Z,42.46
2022-08-11T09:21:06.107Z,42.55
2022-08-11T09:26:36.177Z,42.18
2022-08-11T09:31:52.256Z,41.78
2022-08-11T09:37:54.541Z,41.87
2022-08-11T09:43:26.964Z,41.55
2022-08-11T09:48:44.291Z,41.41
2022-08-11T09:54:03.598Z,41.44
2022-08-11T09:59:14.762Z,41.40
2022-08-11T10:04:35.220Z,41.46
2022-08-11T10:09:54.665Z,41.46
2022-08-11T10:15:27.442Z,41.14
2022-08-11T10:20:41.299Z,41.11
2022-08-11T10:26:18.128Z,40.86
2022-08-11T10:31:57.439Z,40.58
2022-08-11T10:37:14.950Z,40.40
2022-08-11T10:42:57.533Z,40.38
2022-08-11T10:48:17.169Z,40.33
2022-08-11T10:53:44.348Z,40.21
2022-08-11T10:59:03.849Z,39.98
2022-08-11T11:04:18.136Z,39.89
2022-08-11T11:09:33.016Z,39.72
2022-08-11T11:15:00.411Z,39.55
2022-08-11T11:20:34.586Z,39.46
2022-08-11T11:26:11.096Z,39.45
2022-08-11T11:31:33.488Z,38.96
2022-08-11T11:36:47.154Z,38.90
2022-08-11T11:41:57.124Z,38.91
2022-08-11T11:47:08.330Z,38.63
2022-08-11T11:52:19.910Z,38.55
2022-08-11T11:57:59.389Z,38.75
2022-08-11T12:03:14.597Z,38.47
2022-08-11T12:08:27.575Z,38.31
2022-08-11T12:13:58.731Z,38.11
2022-08-11T12:19:15.942Z,37.92
2022-08-11T12:24:41.070Z,37.94
2022-08-11T12:30:01.106Z,38.11
2022-08-11T12:35:15.936Z,38.14
2022-08-11T12:41:03.591Z,37.93
2022-08-11T12:46:22.117Z,37.47
2022-08-11T12:52:00.969Z,37.33
2022-08-11T12:58:18.929Z,37.26
2022-08-11T13:03:56.714Z,37.00
2022-08-11T13:09:05.591Z,36.81
2022-08-11T13:14:16.977Z,36.61
2022-08-11T13:19:28.548Z,36.53
2022-08-11T13:24:42.321Z,36.47
2022-08-11T13:30:14.990Z,36.35
2022-08-11T13:35:23.897Z,36.24
2022-08-11T13:40:55.610Z,36.09
2022-08-11T13:46:18.383Z,35.95
2022-08-11T13:51:35.206Z,35.80
2022-08-11T13:56:46.890Z,35.62
2022-08-11T14:02:20.191Z,35.40
2022-08-11T14:07:34.816Z,35.44
2022-08-11T14:13:05.419Z,34.98
2022-08-11T14:18:21.951Z,34.64
2022-08-11T14:23:34.212Z,34.44
2022-08-11T14:28:45.015Z,34.52
2022-08-11T14:34:02.232Z,34.63
2022-08-11T14:39:13.967Z,34.55
2022-08-11T14:44:40.105Z,34.46
2022-08-11T14:49:58.059Z,34.40
2022-08-11T14:55:39.826Z,33.88
2022-08-11T15:00:52.268Z,33.87
2022-08-11T15:06:09.049Z,33.91
2022-08-11T15:11:38.010Z,33.68
2022-08-11T15:17:07.120Z,33.63
2022-08-11T15:22:52.930Z,33.74
2022-08-11T15:28:19.025Z,33.71
2022-08-11T15:33:57.947Z,33.59
2022-08-11T15:39:19.509Z,33.39
2022-08-11T15:45:03.194Z,33.38
2022-08-11T15:50:16.606Z,33.25
2022-08-11T15:55:26.177Z,33.00
2022-08-11T16:01:04.108Z,32.83
2022-08-11T16:06:20.050Z,32.66
2022-08-11T16:11:39.422Z,32.43
2022-08-11T16:16:56.398Z,32.39
2022-08-11T16:22:35.344Z,32.52
2022-08-11T16:27:46.654Z,32.42
2022-08-11T16:32:55.583Z,32.42
2022-08-11T16:38:22.769Z,32.47
2022-08-11T16:43:53.268Z,32.34
2022-08-11T16:49:13.427Z,32.30
2022-08-11T16:54:21.712Z,32.28
2022-08-11T16:59:40.029Z,32.22
2022-08-11T17:05:12.595Z,32.15
2022-08-11T17:11:03.284Z,32.08
2022-08-11T17:16:25.402Z,32.01
2022-08-11T17:21:58.530Z,32.01
2022-08-11T17:27:09.140Z,31.99
2022-08-11T17:32:56.951Z,32.18
2022-08-11T17:38:16.412Z,32.28
2022-08-11T17:44:06.815Z,32.21
2022-08-11T17:49:28.835Z,32.41
2022-08-11T17:55:15.688Z,32.49
2022-08-11T18:00:44.401Z,32.57
2022-08-11T18:05:55.498Z,32.75
2022-08-11T18:12:07.448Z,32.84
2022-08-11T18:17:16.148Z,32.97
2022-08-11T18:22:48.457Z,33.18
2022-08-11T18:28:24.108Z,33.45
2022-08-11T18:34:07.337Z,33.66
2022-08-11T18:39:39.033Z,33.94
2022-08-11T18:45:14.750Z,34.22
2022-08-11T18:50:40.415Z,34.39
2022-08-11T18:56:11.577Z,34.60
2022-08-11T19:01:38.197Z,34.81
2022-08-11T19:07:08.632Z,35.22
2022-08-11T19:12:58.190Z,35.47
2022-08-11T19:18:41.082Z,35.72
2022-08-11T19:24:10.463Z,35.86
2022-08-11T19:30:04.652Z,36.13
2022-08-11T19:35:40.892Z,36.77
2022-08-11T19:41:56.362Z,37.27
2022-08-11T19:47:16.913Z,37.88
2022-08-11T19:52:45.889Z,38.28
2022-08-11T19:58:15.674Z,38.88
2022-08-11T20:03:41.503Z,39.42
2022-08-11T20:09:18.403Z,39.87
2022-08-11T20:14:47.143Z,40.22
2022-08-11T20:20:26.813Z,40.72
2022-08-11T20:25:59.165Z,41.09
2022-08-11T20:31:35.660Z,41.56
2022-08-11T20:37:13.045Z,41.90
2022-08-11T20:42:39.226Z,42.33
2022-08-11T20:48:05.786Z,42.58
2022-08-11T20:53:35.886Z,42.97
2022-08-11T20:59:21.922Z,43.04
2022-08-11T21:04:54.517Z,43.36
2022-08-11T21:10:35.230Z,43.95
2022-08-11T21:16:03.078Z,44.43
2022-08-11T21:21:44.612Z,44.37
2022-08-11T21:27:24.974Z,44.81
2022-08-11T21:33:12.273Z,45.15
2022-08-11T21:38:50.138Z,45.48
2022-08-11T21:44:18.785Z,45.78
2022-08-11T21:49:47.758Z,45.98
2022-08-11T21:55:14.839Z,46.27
2022-08-11T22:00:39.896Z,46.44
2022-08-11T22:06:09.219Z,46.69
2022-08-11T22:11:37.180Z,47.09
2022-08-11T22:17:04.777Z,47.25
2022-08-11T22:22:32.014Z,47.33
2022-08-11T22:27:59.732Z,47.74
2022-08-11T22:33:30.637Z,47.79
2022-08-11T22:38:58.159Z,48.05
2022-08-11T22:44:23.967Z,48.15
2022-08-11T22:49:57.884Z,48.34
2022-08-11T22:55:34.116Z,48.63
2022-08-11T23:01:10.415Z,48.81
2022-08-11T23:06:49.142Z,48.83
2022-08-11T23:12:19.285Z,49.25
2022-08-11T23:17:45.136Z,49.47
2022-08-11T23:23:14.320Z,49.76
2022-08-11T23:28:48.136Z,49.86
2022-08-11T23:35:02.725Z,50.25
2022-08-11T23:40:03.550Z,50.46
2022-08-11T23:45:41.633Z,50.59
2022-08-11T23:51:07.635Z,50.91
2022-08-11T23:56:36.384Z,51.15
